sensor_id;sensor_type;location;lat;lon;timestamp;P1;durP1;ratioP1;P2;durP2;ratioP2
24389;SDS011;12510;56.468;-3.004;2023-05-10T00:01:04;2.00;;;1.60;;
24389;SDS011;12510;56.468;-3.004;2023-05-10T00:03:30;2.33;;;1.50;;
24389;SDS011;12510;56.468;-3.004;2023-05-10T00:05:57;2.13;;;1.60;;
24389;SDS011;12510;56.468;-3.004;2023-05-10T00:08:23;1.90;;;1.50;;
24389;SDS011;12510;56.468;-3.004;2023-05-10T00:10:49;1.40;;;1.30;;
24389;SDS011;12510;56.468;-3.004;2023-05-10T00:13:16;1.30;;;1.10;;
24389;SDS011;12510;56.468;-3.004;2023-05-10T00:15:42;1.58;;;1.48;;
24389;SDS011;12510;56.468;-3.004;2023-05-10T00:18:09;4.38;;;1.15;;
24389;SDS011;12510;56.468;-3.004;2023-05-10T00:20:35;2.35;;;1.42;;
24389;SDS011;12510;56.468;-3.004;2023-05-10T00:23:01;2.25;;;1.65;;
24389;SDS011;12510;56.468;-3.004;2023-05-10T00:25:28;1.50;;;1.40;;
24389;SDS011;12510;56.468;-3.004;2023-05-10T00:27:54;2.30;;;1.58;;
24389;SDS011;12510;56.468;-3.004;2023-05-10T00:30:24;1.52;;;1.42;;
24389;SDS011;12510;56.468;-3.004;2023-05-10T00:32:50;3.40;;;2.17;;
24389;SDS011;12510;56.468;-3.004;2023-05-10T00:35:17;2.67;;;2.22;;
24389;SDS011;12510;56.468;-3.004;2023-05-10T00:37:44;2.20;;;1.70;;
24389;SDS011;12510;56.468;-3.004;2023-05-10T00:40:10;1.90;;;1.50;;
24389;SDS011;12510;56.468;-3.004;2023-05-10T00:42:37;2.35;;;1.73;;
24389;SDS011;12510;56.468;-3.004;2023-05-10T00:45:05;2.03;;;1.83;;
24389;SDS011;12510;56.468;-3.004;2023-05-10T00:47:33;2.65;;;1.80;;
24389;SDS011;12510;56.468;-3.004;2023-05-10T00:50:00;1.90;;;1.80;;
24389;SDS011;12510;56.468;-3.004;2023-05-10T00:52:27;3.65;;;1.65;;
24389;SDS011;12510;56.468;-3.004;2023-05-10T00:54:55;2.53;;;2.00;;
24389;SDS011;12510;56.468;-3.004;2023-05-10T00:57:22;1.95;;;1.75;;
24389;SDS011;12510;56.468;-3.004;2023-05-10T00:59:49;2.70;;;2.05;;
24389;SDS011;12510;56.468;-3.004;2023-05-10T01:02:16;2.00;;;1.80;;
24389;SDS011;12510;56.468;-3.004;2023-05-10T01:04:43;3.03;;;1.60;;
24389;SDS011;12510;56.468;-3.004;2023-05-10T01:07:09;1.77;;;1.67;;
24389;SDS011;12510;56.468;-3.004;2023-05-10T01:09:36;2.13;;;1.92;;
24389;SDS011;12510;56.468;-3.004;2023-05-10T01:12:04;2.08;;;1.98;;
24389;SDS011;12510;56.468;-3.004;2023-05-10T01:14:33;2.75;;;1.88;;
24389;SDS011;12510;56.468;-3.004;2023-05-10T01:17:00;4.90;;;2.17;;
24389;SDS011;12510;56.468;-3.004;2023-05-10T01:19:28;1.73;;;1.63;;
24389;SDS011;12510;56.468;-3.004;2023-05-10T01:22:02;1.80;;;1.70;;
24389;SDS011;12510;56.468;-3.004;2023-05-10T01:35:03;4.30;;;2.30;;
24389;SDS011;12510;56.468;-3.004;2023-05-10T01:37:58;2.40;;;2.25;;
24389;SDS011;12510;56.468;-3.004;2023-05-10T01:40:39;2.60;;;2.40;;
24389;SDS011;12510;56.468;-3.004;2023-05-10T01:43:32;2.85;;;2.65;;
24389;SDS011;12510;56.468;-3.004;2023-05-10T01:46:16;3.13;;;2.90;;
24389;SDS011;12510;56.468;-3.004;2023-05-10T01:48:51;3.63;;;3.33;;
24389;SDS011;12510;56.468;-3.004;2023-05-10T01:51:21;5.10;;;4.60;;
24389;SDS011;12510;56.468;-3.004;2023-05-10T01:53:51;5.65;;;4.07;;
24389;SDS011;12510;56.468;-3.004;2023-05-10T01:56:25;7.72;;;7.03;;
24389;SDS011;12510;56.468;-3.004;2023-05-10T01:58:54;7.93;;;7.18;;
24389;SDS011;12510;56.468;-3.004;2023-05-10T02:01:22;7.47;;;6.68;;
24389;SDS011;12510;56.468;-3.004;2023-05-10T02:03:51;7.28;;;6.57;;
24389;SDS011;12510;56.468;-3.004;2023-05-10T02:06:21;7.13;;;6.43;;
24389;SDS011;12510;56.468;-3.004;2023-05-10T02:08:49;7.07;;;6.38;;
24389;SDS011;12510;56.468;-3.004;2023-05-10T02:11:18;9.75;;;7.70;;
24389;SDS011;12510;56.468;-3.004;2023-05-10T02:13:47;8.23;;;6.97;;
24389;SDS011;12510;56.468;-3.004;2023-05-10T02:16:16;7.57;;;6.88;;
24389;SDS011;12510;56.468;-3.004;2023-05-10T02:18:48;7.07;;;6.38;;
24389;SDS011;12510;56.468;-3.004;2023-05-10T02:21:19;8.70;;;6.57;;
24389;SDS011;12510;56.468;-3.004;2023-05-10T02:23:48;7.17;;;6.57;;
24389;SDS011;12510;56.468;-3.004;2023-05-10T02:26:16;9.50;;;8.30;;
24389;SDS011;12510;56.468;-3.004;2023-05-10T02:28:48;10.43;;;9.43;;
24389;SDS011;12510;56.468;-3.004;2023-05-10T02:31:16;10.65;;;9.55;;
24389;SDS011;12510;56.468;-3.004;2023-05-10T02:33:44;10.00;;;9.10;;
24389;SDS011;12510;56.468;-3.004;2023-05-10T02:36:12;11.30;;;9.43;;
24389;SDS011;12510;56.468;-3.004;2023-05-10T02:38:39;14.63;;;10.07;;
24389;SDS011;12510;56.468;-3.004;2023-05-10T02:41:07;10.30;;;9.25;;
24389;SDS011;12510;56.468;-3.004;2023-05-10T02:43:36;9.52;;;8.65;;
24389;SDS011;12510;56.468;-3.004;2023-05-10T02:46:05;9.52;;;8.73;;
24389;SDS011;12510;56.468;-3.004;2023-05-10T02:48:32;9.20;;;8.48;;
24389;SDS011;12510;56.468;-3.004;2023-05-10T02:51:00;9.73;;;8.82;;
24389;SDS011;12510;56.468;-3.004;2023-05-10T02:53:31;9.57;;;8.68;;
24389;SDS011;12510;56.468;-3.004;2023-05-10T02:56:07;10.68;;;8.60;;
24389;SDS011;12510;56.468;-3.004;2023-05-10T02:58:39;8.80;;;8.02;;
24389;SDS011;12510;56.468;-3.004;2023-05-10T03:01:06;10.20;;;9.15;;
24389;SDS011;12510;56.468;-3.004;2023-05-10T03:03:33;10.52;;;9.38;;
24389;SDS011;12510;56.468;-3.004;2023-05-10T03:06:00;9.80;;;8.80;;
24389;SDS011;12510;56.468;-3.004;2023-05-10T03:08:26;10.65;;;8.70;;
24389;SDS011;12510;56.468;-3.004;2023-05-10T03:13:46;8.85;;;7.97;;
24389;SDS011;12510;56.468;-3.004;2023-05-10T03:16:29;9.60;;;8.13;;
24389;SDS011;12510;56.468;-3.004;2023-05-10T03:19:06;8.77;;;8.00;;
24389;SDS011;12510;56.468;-3.004;2023-05-10T03:21:56;10.00;;;9.20;;
24389;SDS011;12510;56.468;-3.004;2023-05-10T03:24:28;10.18;;;9.10;;
24389;SDS011;12510;56.468;-3.004;2023-05-10T03:26:58;9.30;;;8.50;;
24389;SDS011;12510;56.468;-3.004;2023-05-10T03:29:29;9.57;;;8.77;;
24389;SDS011;12510;56.468;-3.004;2023-05-10T03:31:58;9.88;;;9.07;;
24389;SDS011;12510;56.468;-3.004;2023-05-10T03:34:25;10.88;;;9.88;;
24389;SDS011;12510;56.468;-3.004;2023-05-10T03:36:52;10.00;;;9.10;;
24389;SDS011;12510;56.468;-3.004;2023-05-10T03:39:19;10.63;;;9.73;;
24389;SDS011;12510;56.468;-3.004;2023-05-10T03:41:51;11.30;;;10.20;;
24389;SDS011;12510;56.468;-3.004;2023-05-10T03:44:18;10.48;;;9.48;;
24389;SDS011;12510;56.468;-3.004;2023-05-10T03:46:44;11.65;;;10.45;;
24389;SDS011;12510;56.468;-3.004;2023-05-10T03:49:11;10.05;;;9.15;;
24389;SDS011;12510;56.468;-3.004;2023-05-10T03:51:38;9.60;;;8.73;;
24389;SDS011;12510;56.468;-3.004;2023-05-10T03:54:04;8.68;;;7.93;;
24389;SDS011;12510;56.468;-3.004;2023-05-10T03:56:31;7.80;;;7.10;;
24389;SDS011;12510;56.468;-3.004;2023-05-10T03:58:59;8.52;;;7.70;;
24389;SDS011;12510;56.468;-3.004;2023-05-10T04:01:25;8.32;;;7.43;;
24389;SDS011;12510;56.468;-3.004;2023-05-10T04:03:52;10.93;;;8.35;;
24389;SDS011;12510;56.468;-3.004;2023-05-10T04:06:18;9.30;;;8.40;;
24389;SDS011;12510;56.468;-3.004;2023-05-10T04:08:45;9.63;;;7.85;;
24389;SDS011;12510;56.468;-3.004;2023-05-10T04:11:11;13.30;;;9.10;;
24389;SDS011;12510;56.468;-3.004;2023-05-10T04:13:38;10.10;;;8.45;;
24389;SDS011;12510;56.468;-3.004;2023-05-10T04:16:05;10.93;;;7.88;;
24389;SDS011;12510;56.468;-3.004;2023-05-10T04:18:31;14.90;;;8.02;;
24389;SDS011;12510;56.468;-3.004;2023-05-10T04:20:58;11.40;;;8.25;;
24389;SDS011;12510;56.468;-3.004;2023-05-10T04:23:24;10.38;;;8.73;;
24389;SDS011;12510;56.468;-3.004;2023-05-10T04:25:50;9.43;;;8.35;;
24389;SDS011;12510;56.468;-3.004;2023-05-10T04:28:17;10.10;;;8.70;;
24389;SDS011;12510;56.468;-3.004;2023-05-10T04:30:43;10.20;;;8.43;;
24389;SDS011;12510;56.468;-3.004;2023-05-10T04:33:10;8.00;;;7.20;;
24389;SDS011;12510;56.468;-3.004;2023-05-10T04:35:36;7.72;;;6.75;;
24389;SDS011;12510;56.468;-3.004;2023-05-10T04:38:03;9.50;;;7.25;;
24389;SDS011;12510;56.468;-3.004;2023-05-10T04:40:29;8.00;;;7.30;;
24389;SDS011;12510;56.468;-3.004;2023-05-10T04:42:56;7.60;;;6.90;;
24389;SDS011;12510;56.468;-3.004;2023-05-10T04:45:22;7.80;;;6.97;;
24389;SDS011;12510;56.468;-3.004;2023-05-10T04:47:48;8.07;;;7.15;;
24389;SDS011;12510;56.468;-3.004;2023-05-10T04:50:15;8.07;;;7.05;;
24389;SDS011;12510;56.468;-3.004;2023-05-10T04:52:41;7.78;;;6.25;;
24389;SDS011;12510;56.468;-3.004;2023-05-10T04:55:08;15.30;;;7.47;;
24389;SDS011;12510;56.468;-3.004;2023-05-10T04:57:35;8.25;;;7.05;;
24389;SDS011;12510;56.468;-3.004;2023-05-10T05:00:02;8.50;;;7.38;;
24389;SDS011;12510;56.468;-3.004;2023-05-10T05:02:30;7.68;;;6.78;;
24389;SDS011;12510;56.468;-3.004;2023-05-10T05:04:56;8.80;;;6.80;;
24389;SDS011;12510;56.468;-3.004;2023-05-10T05:07:23;7.50;;;5.90;;
24389;SDS011;12510;56.468;-3.004;2023-05-10T05:09:50;8.68;;;6.55;;
24389;SDS011;12510;56.468;-3.004;2023-05-10T05:12:16;6.85;;;5.93;;
24389;SDS011;12510;56.468;-3.004;2023-05-10T05:14:43;8.38;;;6.80;;
24389;SDS011;12510;56.468;-3.004;2023-05-10T05:17:09;8.90;;;6.18;;
24389;SDS011;12510;56.468;-3.004;2023-05-10T05:19:35;8.18;;;6.50;;
24389;SDS011;12510;56.468;-3.004;2023-05-10T05:22:02;7.75;;;6.78;;
24389;SDS011;12510;56.468;-3.004;2023-05-10T05:24:29;11.32;;;7.45;;
24389;SDS011;12510;56.468;-3.004;2023-05-10T05:27:00;11.82;;;6.57;;
24389;SDS011;12510;56.468;-3.004;2023-05-10T05:29:27;8.02;;;7.28;;
24389;SDS011;12510;56.468;-3.004;2023-05-10T05:31:53;7.97;;;7.13;;
24389;SDS011;12510;56.468;-3.004;2023-05-10T05:34:20;9.43;;;6.35;;
24389;SDS011;12510;56.468;-3.004;2023-05-10T05:36:48;7.32;;;6.50;;
24389;SDS011;12510;56.468;-3.004;2023-05-10T05:39:14;9.27;;;6.78;;
24389;SDS011;12510;56.468;-3.004;2023-05-10T05:41:41;9.80;;;7.93;;
24389;SDS011;12510;56.468;-3.004;2023-05-10T05:44:08;7.93;;;6.35;;
24389;SDS011;12510;56.468;-3.004;2023-05-10T05:46:34;8.75;;;5.95;;
24389;SDS011;12510;56.468;-3.004;2023-05-10T05:49:01;8.35;;;6.90;;
24389;SDS011;12510;56.468;-3.004;2023-05-10T05:51:27;7.45;;;5.15;;
24389;SDS011;12510;56.468;-3.004;2023-05-10T05:53:54;7.32;;;6.15;;
24389;SDS011;12510;56.468;-3.004;2023-05-10T05:56:21;8.98;;;5.88;;
24389;SDS011;12510;56.468;-3.004;2023-05-10T05:58:50;6.90;;;5.78;;
24389;SDS011;12510;56.468;-3.004;2023-05-10T06:01:17;12.50;;;5.97;;
24389;SDS011;12510;56.468;-3.004;2023-05-10T06:03:43;8.55;;;5.45;;
24389;SDS011;12510;56.468;-3.004;2023-05-10T06:06:10;6.00;;;5.10;;
24389;SDS011;12510;56.468;-3.004;2023-05-10T06:08:36;7.78;;;4.90;;
24389;SDS011;12510;56.468;-3.004;2023-05-10T06:11:02;10.00;;;4.95;;
24389;SDS011;12510;56.468;-3.004;2023-05-10T06:13:30;6.10;;;4.88;;
24389;SDS011;12510;56.468;-3.004;2023-05-10T06:15:58;5.15;;;4.40;;
24389;SDS011;12510;56.468;-3.004;2023-05-10T06:18:24;5.03;;;4.30;;
24389;SDS011;12510;56.468;-3.004;2023-05-10T06:20:51;8.20;;;4.55;;
24389;SDS011;12510;56.468;-3.004;2023-05-10T06:23:17;4.30;;;3.90;;
24389;SDS011;12510;56.468;-3.004;2023-05-10T06:25:44;5.30;;;4.35;;
24389;SDS011;12510;56.468;-3.004;2023-05-10T06:28:10;7.85;;;4.60;;
24389;SDS011;12510;56.468;-3.004;2023-05-10T06:30:37;5.47;;;3.60;;
24389;SDS011;12510;56.468;-3.004;2023-05-10T06:33:03;6.00;;;3.83;;
24389;SDS011;12510;56.468;-3.004;2023-05-10T06:35:30;6.70;;;3.75;;
24389;SDS011;12510;56.468;-3.004;2023-05-10T06:37:59;6.03;;;3.67;;
24389;SDS011;12510;56.468;-3.004;2023-05-10T06:40:25;6.68;;;3.95;;
24389;SDS011;12510;56.468;-3.004;2023-05-10T06:42:52;7.47;;;3.20;;
24389;SDS011;12510;56.468;-3.004;2023-05-10T06:45:18;6.57;;;2.97;;
24389;SDS011;12510;56.468;-3.004;2023-05-10T06:47:45;7.38;;;3.47;;
24389;SDS011;12510;56.468;-3.004;2023-05-10T06:50:11;4.50;;;2.83;;
24389;SDS011;12510;56.468;-3.004;2023-05-10T06:52:38;4.88;;;2.35;;
24389;SDS011;12510;56.468;-3.004;2023-05-10T06:55:05;5.55;;;4.72;;
24389;SDS011;12510;56.468;-3.004;2023-05-10T06:57:32;6.18;;;4.43;;
24389;SDS011;12510;56.468;-3.004;2023-05-10T06:59:58;3.88;;;3.55;;
24389;SDS011;12510;56.468;-3.004;2023-05-10T07:02:25;2.80;;;1.90;;
24389;SDS011;12510;56.468;-3.004;2023-05-10T07:04:52;6.15;;;2.70;;
24389;SDS011;12510;56.468;-3.004;2023-05-10T07:07:18;5.43;;;2.53;;
24389;SDS011;12510;56.468;-3.004;2023-05-10T07:09:45;5.53;;;2.78;;
24389;SDS011;12510;56.468;-3.004;2023-05-10T07:12:11;4.65;;;2.58;;
24389;SDS011;12510;56.468;-3.004;2023-05-10T07:14:38;4.60;;;2.42;;
24389;SDS011;12510;56.468;-3.004;2023-05-10T07:17:04;4.82;;;2.45;;
24389;SDS011;12510;56.468;-3.004;2023-05-10T07:19:30;9.63;;;2.88;;
24389;SDS011;12510;56.468;-3.004;2023-05-10T07:21:58;5.03;;;2.53;;
24389;SDS011;12510;56.468;-3.004;2023-05-10T07:24:24;6.72;;;3.00;;
24389;SDS011;12510;56.468;-3.004;2023-05-10T07:26:51;6.47;;;2.10;;
24389;SDS011;12510;56.468;-3.004;2023-05-10T07:29:17;5.90;;;2.50;;
24389;SDS011;12510;56.468;-3.004;2023-05-10T07:31:44;5.65;;;2.75;;
24389;SDS011;12510;56.468;-3.004;2023-05-10T07:34:10;3.83;;;2.35;;
24389;SDS011;12510;56.468;-3.004;2023-05-10T07:36:37;6.18;;;2.60;;
24389;SDS011;12510;56.468;-3.004;2023-05-10T07:39:03;6.50;;;2.67;;
24389;SDS011;12510;56.468;-3.004;2023-05-10T07:41:29;3.75;;;2.13;;
24389;SDS011;12510;56.468;-3.004;2023-05-10T07:43:56;6.72;;;2.20;;
24389;SDS011;12510;56.468;-3.004;2023-05-10T07:46:22;5.35;;;3.13;;
24389;SDS011;12510;56.468;-3.004;2023-05-10T07:48:49;3.08;;;1.90;;
24389;SDS011;12510;56.468;-3.004;2023-05-10T07:51:15;8.50;;;3.25;;
24389;SDS011;12510;56.468;-3.004;2023-05-10T07:53:42;5.95;;;2.10;;
24389;SDS011;12510;56.468;-3.004;2023-05-10T07:58:48;4.15;;;2.17;;
24389;SDS011;12510;56.468;-3.004;2023-05-10T08:01:15;3.53;;;2.30;;
24389;SDS011;12510;56.468;-3.004;2023-05-10T08:03:41;6.65;;;2.55;;
24389;SDS011;12510;56.468;-3.004;2023-05-10T08:06:08;3.28;;;2.22;;
24389;SDS011;12510;56.468;-3.004;2023-05-10T08:08:34;5.32;;;2.28;;
24389;SDS011;12510;56.468;-3.004;2023-05-10T08:11:00;4.20;;;2.20;;
24389;SDS011;12510;56.468;-3.004;2023-05-10T08:13:27;6.85;;;3.85;;
24389;SDS011;12510;56.468;-3.004;2023-05-10T08:15:53;3.72;;;1.67;;
24389;SDS011;12510;56.468;-3.004;2023-05-10T08:18:20;3.92;;;1.98;;
24389;SDS011;12510;56.468;-3.004;2023-05-10T08:20:46;5.10;;;2.20;;
24389;SDS011;12510;56.468;-3.004;2023-05-10T08:23:13;3.72;;;1.85;;
24389;SDS011;12510;56.468;-3.004;2023-05-10T08:25:39;5.72;;;1.67;;
24389;SDS011;12510;56.468;-3.004;2023-05-10T08:28:06;4.20;;;1.80;;
24389;SDS011;12510;56.468;-3.004;2023-05-10T08:30:32;4.43;;;2.03;;
24389;SDS011;12510;56.468;-3.004;2023-05-10T08:32:59;3.90;;;2.03;;
24389;SDS011;12510;56.468;-3.004;2023-05-10T08:35:25;6.88;;;2.28;;
24389;SDS011;12510;56.468;-3.004;2023-05-10T08:37:52;3.85;;;2.00;;
24389;SDS011;12510;56.468;-3.004;2023-05-10T08:40:19;4.55;;;1.92;;
24389;SDS011;12510;56.468;-3.004;2023-05-10T08:42:57;3.22;;;1.63;;
24389;SDS011;12510;56.468;-3.004;2023-05-10T08:45:32;7.63;;;1.85;;
24389;SDS011;12510;56.468;-3.004;2023-05-10T08:48:02;6.13;;;2.00;;
24389;SDS011;12510;56.468;-3.004;2023-05-10T08:50:32;7.93;;;4.35;;
24389;SDS011;12510;56.468;-3.004;2023-05-10T08:53:03;6.85;;;2.35;;
24389;SDS011;12510;56.468;-3.004;2023-05-10T08:55:32;11.05;;;3.25;;
24389;SDS011;12510;56.468;-3.004;2023-05-10T08:58:04;3.78;;;2.13;;
24389;SDS011;12510;56.468;-3.004;2023-05-10T09:00:31;7.65;;;2.38;;
24389;SDS011;12510;56.468;-3.004;2023-05-10T09:02:58;6.22;;;2.60;;
24389;SDS011;12510;56.468;-3.004;2023-05-10T09:05:25;4.55;;;2.25;;
24389;SDS011;12510;56.468;-3.004;2023-05-10T09:07:52;7.95;;;2.25;;
24389;SDS011;12510;56.468;-3.004;2023-05-10T09:10:19;4.85;;;2.60;;
24389;SDS011;12510;56.468;-3.004;2023-05-10T09:12:46;5.43;;;2.20;;
24389;SDS011;12510;56.468;-3.004;2023-05-10T09:15:16;4.63;;;2.85;;
24389;SDS011;12510;56.468;-3.004;2023-05-10T09:17:45;10.32;;;2.78;;
24389;SDS011;12510;56.468;-3.004;2023-05-10T09:20:13;7.03;;;2.65;;
24389;SDS011;12510;56.468;-3.004;2023-05-10T09:22:39;8.57;;;3.45;;
24389;SDS011;12510;56.468;-3.004;2023-05-10T09:25:10;4.80;;;2.33;;
24389;SDS011;12510;56.468;-3.004;2023-05-10T09:27:38;6.70;;;2.50;;
24389;SDS011;12510;56.468;-3.004;2023-05-10T09:30:06;5.57;;;2.30;;
24389;SDS011;12510;56.468;-3.004;2023-05-10T09:32:40;4.90;;;2.67;;
24389;SDS011;12510;56.468;-3.004;2023-05-10T09:35:11;7.55;;;2.22;;
24389;SDS011;12510;56.468;-3.004;2023-05-10T09:40:53;9.13;;;2.83;;
24389;SDS011;12510;56.468;-3.004;2023-05-10T09:43:20;4.07;;;2.08;;
24389;SDS011;12510;56.468;-3.004;2023-05-10T09:45:47;5.15;;;2.22;;
24389;SDS011;12510;56.468;-3.004;2023-05-10T09:48:17;4.97;;;2.10;;
24389;SDS011;12510;56.468;-3.004;2023-05-10T09:50:44;3.67;;;1.67;;
24389;SDS011;12510;56.468;-3.004;2023-05-10T09:53:10;6.57;;;1.90;;
24389;SDS011;12510;56.468;-3.004;2023-05-10T09:55:42;8.40;;;1.67;;
24389;SDS011;12510;56.468;-3.004;2023-05-10T09:58:11;1.98;;;1.10;;
24389;SDS011;12510;56.468;-3.004;2023-05-10T10:00:44;2.00;;;1.08;;
24389;SDS011;12510;56.468;-3.004;2023-05-10T10:03:14;1.15;;;0.73;;
24389;SDS011;12510;56.468;-3.004;2023-05-10T10:05:41;4.55;;;0.98;;
24389;SDS011;12510;56.468;-3.004;2023-05-10T10:08:09;2.80;;;0.73;;
24389;SDS011;12510;56.468;-3.004;2023-05-10T10:10:36;1.98;;;1.20;;
24389;SDS011;12510;56.468;-3.004;2023-05-10T10:13:04;2.83;;;1.17;;
24389;SDS011;12510;56.468;-3.004;2023-05-10T10:15:31;1.23;;;0.65;;
24389;SDS011;12510;56.468;-3.004;2023-05-10T10:17:59;1.92;;;0.63;;
24389;SDS011;12510;56.468;-3.004;2023-05-10T10:20:28;0.68;;;0.45;;
24389;SDS011;12510;56.468;-3.004;2023-05-10T10:22:55;2.55;;;1.10;;
24389;SDS011;12510;56.468;-3.004;2023-05-10T10:25:21;3.03;;;0.45;;
24389;SDS011;12510;56.468;-3.004;2023-05-10T10:35:58;3.25;;;1.42;;
24389;SDS011;12510;56.468;-3.004;2023-05-10T10:41:27;1.77;;;1.40;;
24389;SDS011;12510;56.468;-3.004;2023-05-10T10:49:30;4.57;;;2.05;;
24389;SDS011;12510;56.468;-3.004;2023-05-10T11:03:12;2.17;;;1.80;;
24389;SDS011;12510;56.468;-3.004;2023-05-10T11:08:29;7.65;;;3.05;;
24389;SDS011;12510;56.468;-3.004;2023-05-10T11:13:47;2.22;;;2.05;;
24389;SDS011;12510;56.468;-3.004;2023-05-10T11:19:01;2.17;;;1.90;;
24389;SDS011;12510;56.468;-3.004;2023-05-10T11:21:30;4.38;;;2.03;;
24389;SDS011;12510;56.468;-3.004;2023-05-10T11:23:58;3.90;;;1.88;;
24389;SDS011;12510;56.468;-3.004;2023-05-10T11:26:30;2.88;;;1.98;;
24389;SDS011;12510;56.468;-3.004;2023-05-10T11:28:57;2.13;;;1.80;;
24389;SDS011;12510;56.468;-3.004;2023-05-10T11:31:28;3.50;;;1.65;;
24389;SDS011;12510;56.468;-3.004;2023-05-10T11:33:55;4.03;;;1.58;;
24389;SDS011;12510;56.468;-3.004;2023-05-10T11:36:24;1.75;;;1.13;;
24389;SDS011;12510;56.468;-3.004;2023-05-10T11:38:52;1.85;;;1.30;;
24389;SDS011;12510;56.468;-3.004;2023-05-10T11:41:20;1.35;;;1.05;;
24389;SDS011;12510;56.468;-3.004;2023-05-10T11:43:49;3.72;;;1.83;;
24389;SDS011;12510;56.468;-3.004;2023-05-10T11:46:18;2.33;;;1.77;;
24389;SDS011;12510;56.468;-3.004;2023-05-10T11:48:52;3.45;;;1.98;;
24389;SDS011;12510;56.468;-3.004;2023-05-10T11:51:21;2.70;;;1.45;;
24389;SDS011;12510;56.468;-3.004;2023-05-10T11:53:49;4.33;;;2.00;;
24389;SDS011;12510;56.468;-3.004;2023-05-10T11:56:17;5.20;;;3.45;;
24389;SDS011;12510;56.468;-3.004;2023-05-10T11:58:43;2.40;;;2.00;;
24389;SDS011;12510;56.468;-3.004;2023-05-10T12:01:10;6.25;;;3.20;;
24389;SDS011;12510;56.468;-3.004;2023-05-10T12:03:37;6.05;;;2.53;;
24389;SDS011;12510;56.468;-3.004;2023-05-10T12:06:03;6.43;;;3.03;;
24389;SDS011;12510;56.468;-3.004;2023-05-10T12:08:31;6.60;;;3.50;;
24389;SDS011;12510;56.468;-3.004;2023-05-10T12:11:05;3.28;;;2.97;;
24389;SDS011;12510;56.468;-3.004;2023-05-10T12:13:37;4.30;;;3.10;;
24389;SDS011;12510;56.468;-3.004;2023-05-10T12:16:17;5.35;;;3.63;;
24389;SDS011;12510;56.468;-3.004;2023-05-10T12:18:48;4.03;;;3.13;;
24389;SDS011;12510;56.468;-3.004;2023-05-10T12:21:17;3.53;;;3.20;;
24389;SDS011;12510;56.468;-3.004;2023-05-10T12:23:45;4.53;;;3.03;;
24389;SDS011;12510;56.468;-3.004;2023-05-10T12:26:13;3.90;;;3.00;;
24389;SDS011;12510;56.468;-3.004;2023-05-10T12:28:40;4.55;;;3.08;;
24389;SDS011;12510;56.468;-3.004;2023-05-10T12:31:06;4.22;;;3.80;;
24389;SDS011;12510;56.468;-3.004;2023-05-10T12:33:37;6.25;;;3.50;;
24389;SDS011;12510;56.468;-3.004;2023-05-10T12:36:12;5.15;;;3.83;;
24389;SDS011;12510;56.468;-3.004;2023-05-10T12:38:41;4.20;;;3.13;;
24389;SDS011;12510;56.468;-3.004;2023-05-10T12:41:14;7.95;;;4.35;;
24389;SDS011;12510;56.468;-3.004;2023-05-10T12:43:42;5.60;;;3.50;;
24389;SDS011;12510;56.468;-3.004;2023-05-10T12:48:44;4.43;;;2.63;;
24389;SDS011;12510;56.468;-3.004;2023-05-10T12:51:15;4.40;;;3.13;;
24389;SDS011;12510;56.468;-3.004;2023-05-10T12:53:45;6.43;;;2.97;;
24389;SDS011;12510;56.468;-3.004;2023-05-10T12:56:13;6.38;;;3.00;;
24389;SDS011;12510;56.468;-3.004;2023-05-10T12:58:40;3.95;;;2.60;;
24389;SDS011;12510;56.468;-3.004;2023-05-10T13:01:06;4.78;;;2.53;;
24389;SDS011;12510;56.468;-3.004;2023-05-10T13:03:34;4.30;;;2.33;;
24389;SDS011;12510;56.468;-3.004;2023-05-10T13:06:00;2.30;;;1.73;;
24389;SDS011;12510;56.468;-3.004;2023-05-10T13:08:27;5.50;;;1.85;;
24389;SDS011;12510;56.468;-3.004;2023-05-10T13:10:55;2.80;;;1.85;;
24389;SDS011;12510;56.468;-3.004;2023-05-10T13:13:22;7.63;;;2.42;;
24389;SDS011;12510;56.468;-3.004;2023-05-10T13:15:48;4.93;;;1.73;;
24389;SDS011;12510;56.468;-3.004;2023-05-10T13:18:14;5.55;;;2.20;;
24389;SDS011;12510;56.468;-3.004;2023-05-10T13:20:41;3.03;;;2.05;;
24389;SDS011;12510;56.468;-3.004;2023-05-10T13:23:08;4.18;;;1.75;;
24389;SDS011;12510;56.468;-3.004;2023-05-10T13:25:35;5.40;;;2.00;;
24389;SDS011;12510;56.468;-3.004;2023-05-10T13:28:02;4.18;;;1.85;;
24389;SDS011;12510;56.468;-3.004;2023-05-10T13:30:28;4.03;;;1.50;;
24389;SDS011;12510;56.468;-3.004;2023-05-10T13:32:54;2.08;;;1.67;;
24389;SDS011;12510;56.468;-3.004;2023-05-10T13:35:21;3.30;;;2.15;;
24389;SDS011;12510;56.468;-3.004;2023-05-10T13:37:47;6.78;;;2.65;;
24389;SDS011;12510;56.468;-3.004;2023-05-10T13:40:14;4.32;;;2.13;;
24389;SDS011;12510;56.468;-3.004;2023-05-10T13:42:41;4.53;;;2.03;;
24389;SDS011;12510;56.468;-3.004;2023-05-10T13:45:08;5.13;;;1.75;;
24389;SDS011;12510;56.468;-3.004;2023-05-10T13:47:35;3.88;;;1.40;;
24389;SDS011;12510;56.468;-3.004;2023-05-10T13:50:02;2.67;;;1.58;;
24389;SDS011;12510;56.468;-3.004;2023-05-10T13:52:29;3.28;;;1.70;;
24389;SDS011;12510;56.468;-3.004;2023-05-10T13:54:56;2.25;;;1.60;;
24389;SDS011;12510;56.468;-3.004;2023-05-10T13:57:23;5.53;;;2.03;;
24389;SDS011;12510;56.468;-3.004;2023-05-10T13:59:50;2.65;;;1.52;;
24389;SDS011;12510;56.468;-3.004;2023-05-10T14:02:16;2.33;;;1.27;;
24389;SDS011;12510;56.468;-3.004;2023-05-10T14:04:43;3.00;;;1.90;;
24389;SDS011;12510;56.468;-3.004;2023-05-10T14:07:09;1.98;;;1.40;;
24389;SDS011;12510;56.468;-3.004;2023-05-10T14:09:36;1.52;;;1.13;;
24389;SDS011;12510;56.468;-3.004;2023-05-10T14:12:02;1.33;;;1.23;;
24389;SDS011;12510;56.468;-3.004;2023-05-10T14:14:29;2.50;;;1.10;;
24389;SDS011;12510;56.468;-3.004;2023-05-10T14:16:55;1.50;;;1.20;;
24389;SDS011;12510;56.468;-3.004;2023-05-10T14:19:22;4.78;;;1.00;;
24389;SDS011;12510;56.468;-3.004;2023-05-10T14:21:48;8.35;;;1.42;;
24389;SDS011;12510;56.468;-3.004;2023-05-10T14:24:15;1.33;;;0.88;;
24389;SDS011;12510;56.468;-3.004;2023-05-10T14:26:41;3.88;;;1.27;;
24389;SDS011;12510;56.468;-3.004;2023-05-10T14:29:07;2.15;;;0.60;;
24389;SDS011;12510;56.468;-3.004;2023-05-10T14:31:34;0.50;;;0.50;;
24389;SDS011;12510;56.468;-3.004;2023-05-10T14:34:01;0.98;;;0.63;;
24389;SDS011;12510;56.468;-3.004;2023-05-10T14:36:27;0.88;;;0.60;;
24389;SDS011;12510;56.468;-3.004;2023-05-10T14:38:54;0.55;;;0.40;;
24389;SDS011;12510;56.468;-3.004;2023-05-10T14:41:21;1.63;;;0.77;;
24389;SDS011;12510;56.468;-3.004;2023-05-10T14:43:47;3.38;;;0.70;;
24389;SDS011;12510;56.468;-3.004;2023-05-10T14:46:14;1.02;;;0.88;;
24389;SDS011;12510;56.468;-3.004;2023-05-10T14:48:41;1.10;;;0.73;;
24389;SDS011;12510;56.468;-3.004;2023-05-10T14:51:08;1.48;;;0.90;;
24389;SDS011;12510;56.468;-3.004;2023-05-10T14:53:34;4.57;;;1.70;;
24389;SDS011;12510;56.468;-3.004;2023-05-10T14:56:01;0.55;;;0.47;;
24389;SDS011;12510;56.468;-3.004;2023-05-10T14:58:27;0.90;;;0.70;;
24389;SDS011;12510;56.468;-3.004;2023-05-10T15:00:54;0.68;;;0.40;;
24389;SDS011;12510;56.468;-3.004;2023-05-10T15:03:20;1.33;;;0.75;;
24389;SDS011;12510;56.468;-3.004;2023-05-10T15:05:47;1.08;;;0.50;;
24389;SDS011;12510;56.468;-3.004;2023-05-10T15:08:13;0.57;;;0.43;;
24389;SDS011;12510;56.468;-3.004;2023-05-10T15:10:39;0.73;;;0.50;;
24389;SDS011;12510;56.468;-3.004;2023-05-10T15:13:06;0.98;;;0.70;;
24389;SDS011;12510;56.468;-3.004;2023-05-10T15:15:32;0.73;;;0.50;;
24389;SDS011;12510;56.468;-3.004;2023-05-10T15:17:59;1.17;;;0.50;;
24389;SDS011;12510;56.468;-3.004;2023-05-10T15:20:25;0.70;;;0.60;;
24389;SDS011;12510;56.468;-3.004;2023-05-10T15:22:52;0.60;;;0.60;;
24389;SDS011;12510;56.468;-3.004;2023-05-10T15:25:19;1.30;;;0.60;;
24389;SDS011;12510;56.468;-3.004;2023-05-10T15:27:45;0.75;;;0.55;;
24389;SDS011;12510;56.468;-3.004;2023-05-10T15:30:12;1.63;;;0.88;;
24389;SDS011;12510;56.468;-3.004;2023-05-10T15:32:39;0.70;;;0.50;;
24389;SDS011;12510;56.468;-3.004;2023-05-10T15:35:07;4.18;;;0.90;;